Terminal Aerodrome Forecast
Issued by NWS Milwaukee/Sullivan, WI

Home | Current Version | Previous Version | Text Only | Print | Product List | Glossary On
Versions: 1 2 3 4 5 6 7 8 9 10 11 12 13 14 15 16 17 18 19 20 21 22 23 24 25 26 27 28 29 30
000
FTUS43 KMKX 181556 AAA
TAFMKE
TAF AMD
KMKE 181556Z 1816/1918 24008KT 1 1/2SM BR OVC003
     FM181800 25009KT 5SM BR BKN010
      TEMPO 1818/1819 BKN008
     FM182100 24010G18KT P6SM SCT020
     FM190200 22012G20KT P6SM BKN250 WS020/25040KT
     FM191500 28012KT P6SM FEW150=

USA.gov is the U.S. government's official web portal to all federal, state and local government web resources and services.